Time;durP1;ratioP1;P1;durP2;ratioP2;P2;SDS_P1;SDS_P2;PMS_P1;PMS_P2;Temp;Humidity;BMP_temperature;BMP_pressure;BME280_temperature;BME280_humidity;BME280_pressure;Samples;Min_cycle;Max_cycle;Signal;HPM_P1;HPM_P2
2022/08/10 00:01:14;;;;;;;2.50;0.93;;;;;;;27.62;37.41;102839.41;5102684;28;20035;-77
2022/08/10 00:03:40;;;;;;;1.77;1.17;;;;;;;26.77;38.66;102847.03;5073703;28;20056;-76
2022/08/10 00:06:05;;;;;;;1.70;1.10;;;;;;;26.54;39.25;102851.66;5092467;28;20483;-77
2022/08/10 00:08:30;;;;;;;1.10;0.98;;;;;;;28.17;36.36;102841.03;5072523;28;20028;-76
2022/08/10 00:10:56;;;;;;;1.98;1.27;;;;;;;27.57;37.59;102836.91;5091537;28;20063;-77
2022/08/10 00:13:23;;;;;;;1.30;1.10;;;;;;;28.25;36.04;102834.28;5073284;28;20062;-77
2022/08/10 00:15:48;;;;;;;1.58;1.17;;;;;;;27.98;36.64;102844.66;5073960;28;20027;-76
2022/08/10 00:18:14;;;;;;;1.10;1.00;;;;;;;27.15;37.70;102840.75;5072326;28;20403;-76
2022/08/10 00:20:39;;;;;;;5.07;2.20;;;;;;;27.84;36.98;102844.53;5101836;28;20062;-76
2022/08/10 00:23:05;;;;;;;1.42;1.20;;;;;;;27.14;38.14;102839.91;5092824;28;20556;-76
2022/08/10 00:25:30;;;;;;;2.90;1.20;;;;;;;28.07;36.56;102835.28;5091953;28;20027;-76
2022/08/10 00:27:56;;;;;;;1.13;1.10;;;;;;;25.71;41.16;102836.53;5072999;28;20107;-77
2022/08/10 00:30:21;;;;;;;3.17;1.10;;;;;;;26.86;38.72;102835.88;5076694;28;20362;-76
2022/08/10 00:32:46;;;;;;;1.65;1.10;;;;;;;26.39;39.19;102834.47;5094765;28;20051;-76
2022/08/10 00:35:13;;;;;;;6.18;3.05;;;;;;;25.90;40.54;102834.78;5096849;28;20018;-77
2022/08/10 00:37:38;;;;;;;2.97;1.00;;;;;;;26.82;39.36;102828.94;5084724;28;20069;-77
2022/08/10 00:40:04;;;;;;;1.10;1.00;;;;;;;27.21;38.22;102830.59;5100542;28;20027;-76
2022/08/10 00:42:30;;;;;;;2.15;1.10;;;;;;;27.65;37.30;102828.47;5115181;28;20104;-76
2022/08/10 00:44:56;;;;;;;1.23;1.10;;;;;;;26.26;39.49;102829.72;5092791;28;20504;-77
2022/08/10 00:47:21;;;;;;;3.15;1.27;;;;;;;27.20;38.22;102828.88;5075333;28;20037;-77
2022/08/10 00:49:47;;;;;;;1.30;1.20;;;;;;;25.88;39.88;102830.44;5074703;28;20028;-75
2022/08/10 00:52:14;;;;;;;1.05;0.98;;;;;;;26.21;39.72;102828.13;5072597;28;20472;-76
2022/08/10 00:54:41;;;;;;;1.10;1.10;;;;;;;26.84;38.33;102834.22;5073703;28;20111;-77
2022/08/10 00:57:07;;;;;;;1.20;1.10;;;;;;;27.45;37.27;102830.38;5072511;28;20024;-76
2022/08/10 00:59:33;;;;;;;1.30;1.20;;;;;;;27.40;37.46;102829.72;5086319;28;20034;-77
2022/08/10 01:01:59;;;;;;;3.30;1.60;;;;;;;27.15;37.64;102830.91;5073620;28;20393;-77
2022/08/10 01:04:25;;;;;;;3.60;1.30;;;;;;;26.82;38.60;102828.94;5072999;28;20033;-77
2022/08/10 01:07:17;;;;;;;3.25;2.75;;;;;;;27.08;38.12;102824.13;5072581;28;20102;-77
2022/08/10 01:09:42;;;;;;;4.65;1.48;;;;;;;25.69;40.82;102833.03;5074793;28;20506;-77
2022/08/10 01:12:14;;;;;;;2.03;1.35;;;;;;;26.84;38.67;102826.16;5074046;28;20032;-76
2022/08/10 01:14:39;;;;;;;1.33;1.20;;;;;;;27.07;38.49;102823.22;5073390;28;20024;-76
2022/08/10 01:17:16;;;;;;;1.58;1.23;;;;;;;27.07;38.13;102822.38;5074085;28;20036;-76
2022/08/10 01:20:22;;;;;;;1.52;1.42;;;;;;;27.57;37.19;102816.31;5081403;28;20028;-76
2022/08/10 01:23:24;;;;;;;1.65;1.55;;;;;;;27.58;37.31;102807.31;5073141;28;20032;-77
2022/08/10 01:25:50;;;;;;;1.27;1.10;;;;;;;27.80;36.87;102810.72;5092377;28;20053;-77
2022/08/10 01:28:28;;;;;;;1.40;1.23;;;;;;;27.63;36.88;102803.50;5074617;28;20034;-77
2022/08/10 01:30:59;;;;;;;1.30;1.20;;;;;;;26.61;38.79;102805.78;5078182;28;20472;-76
2022/08/10 01:33:35;;;;;;;2.50;1.50;;;;;;;25.72;40.54;102809.69;5094537;28;20027;-76
2022/08/10 01:36:10;;;;;;;1.45;1.35;;;;;;;27.34;37.33;102812.09;5083884;28;20025;-76
2022/08/10 01:38:46;;;;;;;1.77;1.55;;;;;;;27.80;36.80;102822.31;5076857;28;20032;-76
2022/08/10 01:41:20;;;;;;;2.30;1.42;;;;;;;26.77;38.89;102808.63;5091939;28;20479;-76
2022/08/10 01:43:53;;;;;;;1.98;1.40;;;;;;;27.42;37.78;102809.03;5084899;28;20111;-76
2022/08/10 01:46:21;;;;;;;;;;;;;;;27.34;37.86;102814.78;5054775;28;20126;-77
2022/08/10 01:48:53;;;;;;;2.38;1.85;;;;;;;27.21;37.57;102814.50;5058050;28;19919;-77
2022/08/10 01:51:42;;;;;;;1.73;1.63;;;;;;;27.79;36.90;102815.19;5071958;28;20113;-77
2022/08/10 01:54:11;;;;;;;1.83;1.73;;;;;;;27.02;37.80;102808.31;5072173;28;20064;-76
2022/08/10 01:56:41;;;;;;;4.53;2.03;;;;;;;27.02;38.59;102813.66;5073707;28;20032;-76
2022/08/10 01:59:10;;;;;;;2.50;1.60;;;;;;;27.19;38.03;102807.47;5061764;28;20024;-77
2022/08/10 02:01:40;;;;;;;2.20;1.60;;;;;;;27.19;37.93;102805.66;5052281;28;20114;-77
2022/08/10 02:04:08;;;;;;;2.83;1.52;;;;;;;26.91;38.65;102803.47;5055119;28;20066;-77
2022/08/10 02:06:47;;;;;;;2.08;1.70;;;;;;;26.92;38.59;102798.00;5051767;28;20079;-76
2022/08/10 02:09:18;;;;;;;2.63;1.55;;;;;;;26.96;38.97;102804.13;5056553;28;20032;-76
2022/08/10 02:11:44;;;;;;;1.90;1.70;;;;;;;26.27;39.72;102804.66;5051361;28;20033;-77
2022/08/10 02:14:13;;;;;;;2.10;1.70;;;;;;;25.96;40.05;102811.38;5051065;28;20087;-77
2022/08/10 02:16:43;;;;;;;3.13;1.70;;;;;;;25.67;40.71;102805.47;5051490;28;20423;-77
2022/08/10 02:19:13;;;;;;;2.00;1.80;;;;;;;26.22;39.85;102808.41;5052099;28;20040;-77
2022/08/10 02:21:42;;;;;;;2.08;1.60;;;;;;;26.55;39.00;102807.78;5051178;28;20025;-76
2022/08/10 02:24:11;;;;;;;2.80;1.77;;;;;;;26.73;38.83;102798.03;5054632;28;20119;-76
2022/08/10 02:26:38;;;;;;;2.25;2.05;;;;;;;26.58;38.92;102799.63;5071377;28;20028;-77
2022/08/10 02:29:04;;;;;;;2.47;2.28;;;;;;;26.26;39.79;102800.25;5070798;28;20473;-77
2022/08/10 02:31:30;;;;;;;2.20;1.98;;;;;;;26.40;39.75;102804.00;5071685;28;20537;-76
2022/08/10 02:33:57;;;;;;;1.83;1.70;;;;;;;26.48;39.20;102798.31;5069852;28;20107;-76
2022/08/10 02:36:25;;;;;;;1.95;1.65;;;;;;;26.17;39.32;102798.84;5073117;28;20024;-75
2022/08/10 02:38:57;;;;;;;2.28;2.08;;;;;;;26.49;39.38;102800.03;5071679;28;20152;-77
2022/08/10 02:42:00;;;;;;;3.10;2.35;;;;;;;25.17;41.71;102802.16;5051899;28;20025;-77
2022/08/10 02:44:43;;;;;;;2.60;2.00;;;;;;;25.64;41.26;102800.25;5064702;28;20035;-77
2022/08/10 02:47:20;;;;;;;2.80;1.85;;;;;;;26.84;39.18;102792.16;5113517;28;20030;-77
2022/08/10 02:49:56;;;;;;;2.55;1.90;;;;;;;26.42;39.39;102793.25;5112072;28;20028;-76
2022/08/10 02:52:30;;;;;;;2.28;1.73;;;;;;;26.91;38.85;102780.19;5074545;28;20024;-77
2022/08/10 02:55:04;;;;;;;2.00;1.75;;;;;;;26.22;39.68;102784.28;5090776;28;20106;-76
2022/08/10 02:57:37;;;;;;;6.35;2.22;;;;;;;26.71;38.74;102772.25;5074165;28;20073;-76
2022/08/10 03:00:06;;;;;;;4.43;2.00;;;;;;;26.01;40.48;102782.56;5092636;28;20024;-76
2022/08/10 03:02:35;;;;;;;2.83;2.42;;;;;;;26.68;39.03;102788.44;5091931;28;20022;-76
2022/08/10 03:05:08;;;;;;;4.93;2.22;;;;;;;25.64;41.14;102789.56;5085831;28;20027;-76
2022/08/10 03:07:58;;;;;;;3.20;2.10;;;;;;;26.66;39.42;102783.16;5094698;28;20045;-76
2022/08/10 03:10:28;;;;;;;2.83;2.42;;;;;;;26.73;39.13;102783.75;5090330;28;20015;-77
2022/08/10 03:13:00;;;;;;;5.32;2.40;;;;;;;26.08;40.34;102784.06;5074044;28;20039;-77
2022/08/10 03:15:31;;;;;;;2.50;2.30;;;;;;;26.58;39.49;102780.84;5085792;28;20518;-76
2022/08/10 03:17:57;;;;;;;3.25;2.45;;;;;;;26.47;39.67;102785.81;5094140;28;20119;-76
2022/08/10 03:20:24;;;;;;;2.50;2.30;;;;;;;26.44;39.96;102779.75;5112641;28;20394;-76
2022/08/10 03:22:51;;;;;;;2.20;2.00;;;;;;;26.98;39.21;102777.19;5087103;28;20019;-76
2022/08/10 03:25:20;;;;;;;2.70;2.30;;;;;;;26.01;41.01;102787.94;5111093;28;20039;-76
2022/08/10 03:27:47;;;;;;;4.50;2.65;;;;;;;26.66;39.61;102774.25;5083814;28;20059;-77
2022/08/10 03:30:13;;;;;;;4.05;2.47;;;;;;;26.72;39.53;102773.97;5078656;28;20058;-76
2022/08/10 03:32:39;;;;;;;2.65;2.45;;;;;;;25.82;40.92;102772.66;5074074;28;20046;-76
2022/08/10 03:35:06;;;;;;;5.15;2.40;;;;;;;25.78;42.05;102771.06;5104957;28;20031;-77
2022/08/10 03:37:32;;;;;;;4.85;2.53;;;;;;;25.30;42.61;102772.22;5090242;28;20066;-77
2022/08/10 03:39:57;;;;;;;2.88;2.63;;;;;;;25.99;41.28;102763.00;5076567;28;20036;-76
2022/08/10 03:42:26;;;;;;;3.00;2.70;;;;;;;25.89;41.46;102766.09;5073967;28;20128;-77
2022/08/10 03:44:53;;;;;;;2.55;2.35;;;;;;;26.46;40.17;102767.13;5072866;28;20052;-77
2022/08/10 03:47:21;;;;;;;2.72;2.30;;;;;;;25.29;42.29;102762.44;5075430;28;20088;-76
2022/08/10 03:49:47;;;;;;;5.07;3.13;;;;;;;26.17;41.22;102759.53;5079936;28;20025;-76
2022/08/10 03:52:15;;;;;;;3.55;2.85;;;;;;;26.21;41.15;102766.50;5091286;28;20595;-76
2022/08/10 03:54:42;;;;;;;4.30;2.95;;;;;;;25.84;41.96;102770.81;5090043;28;20063;-77
2022/08/10 03:57:07;;;;;;;3.85;2.85;;;;;;;25.81;41.56;102770.91;5073338;28;20028;-76
2022/08/10 03:59:35;;;;;;;3.50;2.80;;;;;;;24.98;43.61;102769.06;5099038;28;20034;-76
2022/08/10 04:02:00;;;;;;;5.78;3.30;;;;;;;25.99;41.54;102773.72;5093976;28;20023;-76
2022/08/10 04:04:29;;;;;;;4.45;3.50;;;;;;;25.42;42.59;102774.41;5094077;28;20028;-77
2022/08/10 04:06:56;;;;;;;3.80;2.83;;;;;;;26.27;40.96;102772.47;5093179;28;20436;-76
2022/08/10 04:09:27;;;;;;;4.63;3.20;;;;;;;25.50;42.67;102777.63;5105975;28;20023;-77
2022/08/10 04:11:53;;;;;;;3.58;3.20;;;;;;;26.38;40.64;102772.88;5077525;28;20031;-77
2022/08/10 04:14:18;;;;;;;5.45;3.63;;;;;;;26.50;40.32;102774.09;5078463;28;20020;-77
2022/08/10 04:16:43;;;;;;;6.05;3.40;;;;;;;26.12;41.83;102774.94;5096327;28;20418;-77
2022/08/10 04:19:10;;;;;;;6.18;3.13;;;;;;;25.96;41.53;102776.53;5091674;28;20467;-77
2022/08/10 04:21:41;;;;;;;3.53;3.20;;;;;;;25.62;42.30;102770.84;5097733;28;20023;-77
2022/08/10 04:24:10;;;;;;;6.25;3.53;;;;;;;25.09;43.43;102777.50;5111374;28;20028;-77
2022/08/10 04:26:36;;;;;;;3.83;3.30;;;;;;;25.56;43.27;102776.47;5101259;28;20042;-77
2022/08/10 04:29:02;;;;;;;4.43;3.63;;;;;;;26.47;40.74;102767.06;5087466;28;20036;-77
2022/08/10 04:31:29;;;;;;;4.70;3.67;;;;;;;25.81;42.64;102772.72;5076716;28;20044;-77
2022/08/10 04:33:57;;;;;;;5.00;3.20;;;;;;;26.43;40.85;102770.84;5095156;28;20024;-77
2022/08/10 04:36:24;;;;;;;5.55;3.42;;;;;;;25.96;42.10;102773.88;5097133;28;20077;-77
2022/08/10 04:38:51;;;;;;;4.25;3.80;;;;;;;26.83;40.32;102771.66;5077106;28;20035;-77
2022/08/10 04:41:17;;;;;;;5.45;3.70;;;;;;;26.12;41.45;102768.69;5084936;28;20071;-77
2022/08/10 04:43:42;;;;;;;5.53;4.00;;;;;;;26.09;42.27;102772.41;5095918;28;20059;-77
2022/08/10 04:46:08;;;;;;;6.00;4.40;;;;;;;26.22;42.19;102776.25;5097401;28;20055;-77
2022/08/10 04:48:33;;;;;;;3.80;3.35;;;;;;;25.79;42.62;102772.81;5095234;28;20039;-77
2022/08/10 04:50:58;;;;;;;7.22;4.13;;;;;;;25.46;43.45;102769.75;5095246;28;20023;-77
2022/08/10 04:53:24;;;;;;;12.68;6.57;;;;;;;26.19;42.75;102768.34;5084017;28;20040;-77
2022/08/10 04:55:49;;;;;;;4.68;3.95;;;;;;;26.09;42.49;102772.41;5093056;28;20115;-77
2022/08/10 04:58:14;;;;;;;7.07;4.97;;;;;;;25.33;44.76;102772.09;5094146;28;20038;-77
2022/08/10 05:00:40;;;;;;;5.10;4.15;;;;;;;25.36;44.11;102769.28;5090512;28;20530;-77
2022/08/10 05:03:06;;;;;;;4.82;4.32;;;;;;;25.05;45.42;102770.56;5096583;28;20035;-77
2022/08/10 05:05:31;;;;;;;6.15;4.82;;;;;;;25.84;43.40;102773.47;5115618;28;20411;-77
2022/08/10 05:07:57;;;;;;;5.75;4.78;;;;;;;26.03;43.26;102764.63;5097379;28;20395;-77
2022/08/10 05:10:22;;;;;;;8.63;4.65;;;;;;;25.63;44.07;102769.06;5080049;28;20038;-76
2022/08/10 05:12:47;;;;;;;6.55;4.68;;;;;;;24.50;46.26;102774.44;5114472;28;20032;-77
2022/08/10 05:15:14;;;;;;;9.45;5.25;;;;;;;25.70;44.46;102773.19;5114670;28;20023;-77
2022/08/10 05:17:41;;;;;;;6.50;4.88;;;;;;;26.50;42.60;102764.25;5097060;28;20053;-77
2022/08/10 05:20:09;;;;;;;7.25;4.40;;;;;;;26.96;41.50;102768.38;5095063;28;20376;-77
2022/08/10 05:22:39;;;;;;;5.25;4.63;;;;;;;26.22;42.94;102770.03;5086855;28;20483;-77
2022/08/10 05:25:10;;;;;;;9.27;5.80;;;;;;;26.09;43.21;102764.38;5081433;28;20487;-77
2022/08/10 05:27:36;;;;;;;10.52;4.85;;;;;;;26.37;42.68;102774.66;5091509;28;20035;-77
2022/08/10 05:30:03;;;;;;;7.57;4.72;;;;;;;27.29;40.67;102767.63;5078689;28;20122;-77
2022/08/10 05:32:33;;;;;;;9.50;5.05;;;;;;;25.87;43.88;102776.00;5102764;28;20415;-77
2022/08/10 05:34:58;;;;;;;6.25;4.50;;;;;;;26.11;43.60;102783.91;5108898;28;20095;-77
2022/08/10 05:37:24;;;;;;;5.95;4.72;;;;;;;27.37;40.91;102770.84;5099893;28;20031;-77
2022/08/10 05:39:50;;;;;;;6.53;4.72;;;;;;;27.13;41.34;102772.91;5095663;28;20035;-77
2022/08/10 05:42:16;;;;;;;9.10;5.28;;;;;;;27.59;40.73;102776.81;5080858;28;20047;-77
2022/08/10 05:44:43;;;;;;;5.45;4.35;;;;;;;27.34;41.07;102773.63;5075381;28;20500;-77
2022/08/10 05:47:09;;;;;;;8.40;5.38;;;;;;;26.54;42.79;102781.94;5109725;28;20085;-77
2022/08/10 05:49:34;;;;;;;9.40;5.38;;;;;;;26.10;44.31;102773.28;5114576;28;20429;-77
2022/08/10 05:52:00;;;;;;;8.63;5.57;;;;;;;26.81;42.32;102778.03;5093540;28;20088;-76
2022/08/10 05:54:26;;;;;;;9.10;6.00;;;;;;;27.05;42.24;102781.31;5094941;28;20088;-76
2022/08/10 05:56:52;;;;;;;6.93;5.00;;;;;;;26.84;41.65;102777.88;5082302;28;20031;-76
2022/08/10 05:59:19;;;;;;;7.45;4.85;;;;;;;27.17;41.87;102785.22;5095655;28;20091;-77
2022/08/10 06:01:47;;;;;;;6.68;4.40;;;;;;;27.42;41.34;102784.88;5112345;28;20502;-77
2022/08/10 06:04:18;;;;;;;5.28;4.55;;;;;;;27.48;41.40;102783.69;5095251;28;20390;-77
2022/08/10 06:06:46;;;;;;;8.20;5.40;;;;;;;27.33;41.77;102770.06;5112842;28;20027;-77
2022/08/10 06:09:14;;;;;;;8.63;4.50;;;;;;;28.61;39.01;102765.97;5094791;28;20436;-76
2022/08/10 06:11:42;;;;;;;6.70;5.22;;;;;;;28.19;40.09;102780.00;5095437;28;20064;-77
2022/08/10 06:16:53;;;;;;;6.97;4.68;;;;;;;27.58;41.58;102779.59;5099938;28;20041;-76
2022/08/10 06:19:20;;;;;;;8.65;5.28;;;;;;;27.83;40.38;102773.78;5089352;28;20114;-76
2022/08/10 06:21:47;;;;;;;7.03;5.28;;;;;;;27.88;40.84;102777.09;5074471;28;20020;-76
2022/08/10 06:24:16;;;;;;;7.03;5.03;;;;;;;27.81;40.65;102778.38;5093519;28;20085;-77
2022/08/10 06:26:43;;;;;;;7.95;5.22;;;;;;;27.50;41.31;102774.59;5078989;28;20445;-76
2022/08/10 06:29:15;;;;;;;8.10;5.57;;;;;;;27.98;40.14;102777.47;5113375;28;20059;-76
2022/08/10 06:31:45;;;;;;;8.32;5.13;;;;;;;27.81;40.73;102786.44;5089803;28;20034;-76
2022/08/10 06:34:12;;;;;;;5.50;4.97;;;;;;;29.01;38.71;102778.13;5102355;28;20023;-77
2022/08/10 06:36:41;;;;;;;9.05;5.70;;;;;;;26.88;42.99;102785.69;5087869;28;20317;-76
2022/08/10 06:39:07;;;;;;;8.02;5.05;;;;;;;27.38;41.78;102783.28;5086821;28;20015;-77
2022/08/10 06:41:38;;;;;;;8.10;5.53;;;;;;;27.86;41.06;102783.50;5093831;28;20434;-77
2022/08/10 06:44:14;;;;;;;8.65;4.85;;;;;;;28.10;40.83;102781.38;5099165;28;20089;-77
2022/08/10 06:46:44;;;;;;;9.80;5.30;;;;;;;27.83;41.00;102778.31;5085178;28;20093;-77
2022/08/10 06:49:10;;;;;;;6.82;4.93;;;;;;;28.13;40.68;102780.34;5080420;28;20019;-77
2022/08/10 06:51:39;;;;;;;7.00;5.15;;;;;;;27.81;41.24;102786.44;5112767;28;20024;-78
2022/08/10 06:54:08;;;;;;;7.93;5.30;;;;;;;28.66;39.76;102783.69;5093526;28;20388;-77
2022/08/10 06:56:38;;;;;;;9.27;5.32;;;;;;;28.18;40.09;102787.19;5111173;28;20030;-77
2022/08/10 06:59:20;;;;;;;10.07;5.80;;;;;;;28.73;39.52;102785.13;5076232;28;20146;-77
2022/08/10 07:01:50;;;;;;;7.65;5.72;;;;;;;28.22;40.35;102791.44;5073242;28;20074;-77
2022/08/10 07:04:26;;;;;;;7.10;4.93;;;;;;;29.37;38.33;102785.03;5074788;28;20494;-77
2022/08/10 07:06:55;;;;;;;7.38;4.90;;;;;;;31.33;34.77;102786.16;5074763;28;20020;-77
2022/08/10 07:09:21;;;;;;;7.93;4.40;;;;;;;33.78;30.34;102790.94;5089847;28;20023;-77
2022/08/10 07:11:49;;;;;;;5.07;4.22;;;;;;;35.03;28.83;102785.41;5092814;28;20387;-76
2022/08/10 07:14:17;;;;;;;7.03;3.72;;;;;;;35.46;27.54;102789.88;5071504;28;20023;-77
2022/08/10 07:16:45;;;;;;;6.18;3.63;;;;;;;35.39;27.64;102783.25;5072162;28;20081;-77
2022/08/10 07:19:13;;;;;;;6.30;3.45;;;;;;;36.70;26.70;102793.44;5089798;28;20020;-77
2022/08/10 07:21:40;;;;;;;5.35;3.50;;;;;;;35.71;26.75;102782.31;5074044;28;20046;-77
2022/08/10 07:24:09;;;;;;;3.67;3.28;;;;;;;37.78;25.93;102774.31;5102057;28;20472;-77
2022/08/10 07:26:36;;;;;;;6.03;3.92;;;;;;;37.50;25.10;102776.97;5084554;28;20027;-77
2022/08/10 07:29:05;;;;;;;8.95;3.10;;;;;;;37.84;25.80;102779.19;5097733;28;20028;-77
2022/08/10 07:31:31;;;;;;;3.45;3.15;;;;;;;37.58;26.35;102768.91;5095673;28;20028;-77
2022/08/10 07:33:58;;;;;;;7.07;3.75;;;;;;;38.83;24.68;102783.09;5093060;28;20027;-77
2022/08/10 07:36:26;;;;;;;4.40;3.63;;;;;;;37.56;25.07;102776.34;5098310;28;20024;-77
2022/08/10 07:38:54;;;;;;;6.35;3.38;;;;;;;38.64;23.64;102778.59;5092389;28;20020;-77
2022/08/10 07:41:22;;;;;;;5.75;3.22;;;;;;;39.97;22.78;102774.00;5083123;28;20110;-77
2022/08/10 07:43:50;;;;;;;8.38;3.45;;;;;;;38.83;23.48;102781.22;5099761;28;20023;-77
2022/08/10 07:46:21;;;;;;;4.20;2.88;;;;;;;39.10;24.02;102781.25;5092537;28;20074;-77
2022/08/10 07:48:49;;;;;;;3.55;2.83;;;;;;;36.87;25.19;102785.59;5082971;28;20076;-77
2022/08/10 07:51:17;;;;;;;6.55;2.40;;;;;;;37.35;25.45;102785.59;5077862;28;20024;-77
2022/08/10 07:53:51;;;;;;;5.53;2.42;;;;;;;36.13;26.87;102793.97;5096269;28;20023;-77
2022/08/10 07:56:24;;;;;;;3.22;2.70;;;;;;;37.86;24.68;102782.59;5092502;28;20480;-77
2022/08/10 07:59:08;;;;;;;3.08;2.45;;;;;;;39.92;22.88;102786.47;5107895;28;20023;-77
2022/08/10 08:01:39;;;;;;;3.78;2.42;;;;;;;40.34;22.19;102797.41;5083255;28;20035;-77
2022/08/10 08:04:05;;;;;;;4.40;2.80;;;;;;;41.04;21.40;102803.56;5091300;28;20098;-77
2022/08/10 08:06:32;;;;;;;3.17;2.45;;;;;;;41.05;22.67;102799.78;5091653;28;20064;-77
2022/08/10 08:09:00;;;;;;;5.05;2.67;;;;;;;41.36;21.46;102797.22;5077067;28;20062;-76
2022/08/10 08:11:27;;;;;;;3.25;2.85;;;;;;;41.61;21.65;102799.06;5098582;28;20027;-76
2022/08/10 08:13:55;;;;;;;4.18;2.53;;;;;;;40.79;21.96;102799.94;5092766;28;20028;-76
2022/08/10 08:16:24;;;;;;;4.15;2.72;;;;;;;39.73;22.26;102790.28;5086287;28;20039;-77
2022/08/10 08:18:53;;;;;;;3.63;2.50;;;;;;;38.79;23.55;102795.34;5077025;28;20549;-76
2022/08/10 08:21:19;;;;;;;4.43;2.50;;;;;;;38.95;23.98;102790.03;5093144;28;20024;-77
2022/08/10 08:23:48;;;;;;;9.52;2.85;;;;;;;39.35;23.00;102793.25;5076028;28;20039;-78
2022/08/10 08:26:16;;;;;;;3.42;2.47;;;;;;;38.67;23.07;102792.78;5073201;28;20032;-77
2022/08/10 08:28:44;;;;;;;6.72;2.53;;;;;;;41.43;21.89;102785.56;5083558;28;20472;-75
2022/08/10 08:31:12;;;;;;;3.97;2.80;;;;;;;41.35;20.82;102789.13;5083006;28;20055;-75
2022/08/10 08:33:38;;;;;;;4.93;2.20;;;;;;;41.98;20.81;102787.47;5099036;28;20557;-76
2022/08/10 08:36:04;;;;;;;3.85;2.58;;;;;;;39.31;22.73;102784.53;5078685;28;20028;-77
2022/08/10 08:38:31;;;;;;;4.38;2.67;;;;;;;40.05;22.33;102791.50;5076306;28;20024;-77
2022/08/10 08:41:26;;;;;;;2.85;2.30;;;;;;;40.62;21.54;102794.41;5072431;28;20039;-76
2022/08/10 08:44:10;;;;;;;5.43;2.28;;;;;;;40.51;22.42;102794.75;5075031;28;20024;-77
2022/08/10 08:46:38;;;;;;;8.25;2.15;;;;;;;40.67;21.03;102793.91;5074894;28;20415;-78
2022/08/10 08:49:27;;;;;;;4.10;2.10;;;;;;;41.24;21.18;102784.88;5096012;28;20027;-77
2022/08/10 08:52:23;;;;;;;3.30;2.00;;;;;;;40.05;21.89;102786.03;5052648;28;20031;-76
2022/08/10 08:55:09;;;;;;;7.13;3.05;;;;;;;41.06;21.04;102767.75;5083114;28;20133;-77
2022/08/10 08:57:48;;;;;;;4.68;1.90;;;;;;;41.31;20.79;102776.81;5094769;28;20032;-77
2022/08/10 09:00:40;;;;;;;5.20;2.70;;;;;;;38.85;23.07;102781.03;5107358;28;20027;-77
2022/08/10 09:03:41;;;;;;;3.35;2.40;;;;;;;41.99;19.81;102769.97;5084527;28;20136;-77
2022/08/10 09:06:21;;;;;;;3.08;2.30;;;;;;;41.08;20.75;102768.44;5076999;28;20054;-78
2022/08/10 09:09:04;;;;;;;2.33;2.13;;;;;;;39.92;21.47;102776.34;5095635;28;20038;-77
2022/08/10 09:11:49;;;;;;;3.42;2.20;;;;;;;41.22;21.40;102756.78;5096956;28;20024;-77
2022/08/10 09:14:14;;;;;;;2.25;2.05;;;;;;;40.26;20.90;102764.53;5092823;28;20042;-77
2022/08/10 09:17:08;;;;;;;3.08;1.88;;;;;;;40.30;21.63;102762.31;5062570;28;20486;-78
2022/08/10 09:19:49;;;;;;;1.92;1.75;;;;;;;40.91;20.00;102773.03;5112041;28;20030;-78
2022/08/10 09:22:39;;;;;;;4.10;1.90;;;;;;;40.62;21.03;102761.53;5085710;28;20552;-78
2022/08/10 09:25:15;;;;;;;3.03;2.22;;;;;;;41.40;19.73;102748.38;5093724;28;20030;-78
2022/08/10 09:27:48;;;;;;;2.75;1.55;;;;;;;41.68;19.85;102756.16;5083389;28;20032;-78
2022/08/10 09:30:17;;;;;;;4.75;1.67;;;;;;;41.21;20.41;102750.41;5111081;28;20510;-78
2022/08/10 09:32:47;;;;;;;2.63;1.50;;;;;;;40.43;20.23;102751.72;5090193;28;20119;-77
2022/08/10 09:35:37;;;;;;;1.88;1.50;;;;;;;41.61;19.25;102742.28;5084330;28;20051;-79
2022/08/10 09:38:40;;;;;;;7.03;2.00;;;;;;;42.15;19.74;102735.19;5079865;28;20142;-78
2022/08/10 09:41:32;;;;;;;4.80;1.55;;;;;;;42.02;19.12;102746.78;5075152;28;20040;-78
2022/08/10 09:43:58;;;;;;;2.33;1.77;;;;;;;40.78;20.21;102732.44;5062356;28;20032;-78
2022/08/10 09:46:49;;;;;;;3.45;2.00;;;;;;;39.98;21.20;102742.00;5082204;28;20077;-76
2022/08/10 09:49:35;;;;;;;5.28;1.65;;;;;;;41.14;20.77;102732.13;5087602;28;20030;-78
2022/08/10 09:52:25;;;;;;;3.17;1.77;;;;;;;42.22;19.21;102725.22;5098080;28;20051;-78
2022/08/10 09:55:16;;;;;;;4.03;1.40;;;;;;;40.50;21.25;102721.81;5112700;28;20032;-78
2022/08/10 09:57:49;;;;;;;3.80;1.27;;;;;;;40.97;20.70;102714.81;5091024;28;20038;-77
2022/08/10 10:00:19;;;;;;;4.32;1.40;;;;;;;40.18;21.85;102721.56;5072831;28;20032;-78
2022/08/10 10:03:03;;;;;;;1.30;0.90;;;;;;;41.56;19.97;102720.00;5075469;28;20169;-78
2022/08/10 10:06:09;;;;;;;1.67;1.27;;;;;;;41.59;19.60;102714.19;5098070;28;20038;-78
2022/08/10 10:09:02;;;;;;;1.48;1.20;;;;;;;40.29;19.32;102712.16;5030562;28;20580;-77
2022/08/10 10:11:41;;;;;;;3.33;1.35;;;;;;;39.18;21.14;102716.59;5096539;28;20047;-77
2022/08/10 10:17:45;;;;;;;1.75;1.00;;;;;;;41.29;19.91;102702.06;5094125;28;20066;-77
2022/08/10 10:20:42;;;;;;;5.80;1.40;;;;;;;39.03;21.95;102699.03;5077071;28;20041;-75
2022/08/10 10:23:41;;;;;;;4.97;1.10;;;;;;;40.70;20.35;102693.06;5074299;28;20032;-78
2022/08/10 10:26:07;;;;;;;2.95;1.05;;;;;;;39.51;21.63;102699.53;5073772;28;20020;-77
2022/08/10 10:28:46;;;;;;;3.47;1.40;;;;;;;39.51;21.21;102692.16;5105350;28;20027;-77
2022/08/10 10:31:23;;;;;;;3.33;1.10;;;;;;;39.68;20.65;102686.81;5073929;28;20046;-77
2022/08/10 10:34:16;;;;;;;4.70;1.33;;;;;;;38.79;21.41;102688.81;5102178;28;20447;-77
2022/08/10 10:36:44;;;;;;;3.85;1.23;;;;;;;39.18;21.28;102680.22;5112254;28;20536;-77
2022/08/10 10:39:15;;;;;;;2.35;1.17;;;;;;;37.77;22.34;102688.03;5092914;28;20051;-77
2022/08/10 10:41:50;;;;;;;1.92;0.95;;;;;;;39.98;20.23;102688.13;5110618;28;20531;-78
2022/08/10 10:44:40;;;;;;;1.55;1.13;;;;;;;37.88;21.34;102682.38;5113581;28;20030;-77
2022/08/10 10:47:14;;;;;;;5.95;1.55;;;;;;;38.79;20.69;102680.59;5089454;28;20034;-78
2022/08/10 10:50:10;;;;;;;2.83;1.20;;;;;;;37.77;21.22;102685.28;5083088;28;20492;-76
2022/08/10 10:53:05;;;;;;;1.85;1.00;;;;;;;37.54;20.68;102674.75;5088718;28;20081;-77
2022/08/10 10:56:06;;;;;;;3.33;1.00;;;;;;;38.06;20.82;102673.34;5092649;28;20122;-76
2022/08/10 10:59:09;;;;;;;1.90;0.90;;;;;;;37.98;21.71;102672.25;5029569;28;20114;-77
2022/08/10 11:02:07;;;;;;;1.05;0.90;;;;;;;37.60;21.19;102685.06;5008324;28;20055;-77
2022/08/10 11:04:44;;;;;;;12.73;2.25;;;;;;;36.64;21.91;102672.34;5088831;28;20109;-76
2022/08/10 11:07:22;;;;;;;1.90;1.15;;;;;;;38.14;21.19;102666.13;5084409;28;20039;-77
2022/08/10 11:10:01;;;;;;;4.43;1.35;;;;;;;38.94;20.30;102661.72;5074490;28;20039;-77
2022/08/10 11:12:54;;;;;;;1.85;1.10;;;;;;;38.88;19.89;102660.50;5091279;28;20056;-76
2022/08/10 11:15:41;;;;;;;2.25;1.17;;;;;;;37.69;21.18;102656.88;5092924;28;20537;-77
2022/08/10 11:18:14;;;;;;;3.42;1.10;;;;;;;40.45;18.79;102656.56;5100507;28;20073;-78
2022/08/10 11:20:50;;;;;;;1.50;0.90;;;;;;;39.90;18.15;102663.47;5074006;28;20027;-78
2022/08/10 11:23:38;;;;;;;2.97;1.30;;;;;;;41.06;18.53;102647.13;5075833;28;20031;-78
2022/08/10 11:26:09;;;;;;;4.13;1.05;;;;;;;41.14;17.82;102644.38;5107312;28;20045;-79
2022/08/10 11:28:51;;;;;;;3.90;1.10;;;;;;;39.51;17.95;102647.56;5107285;28;20042;-77
2022/08/10 11:31:34;;;;;;;1.73;1.05;;;;;;;39.61;18.13;102653.81;5103381;28;20032;-76
2022/08/10 11:34:05;;;;;;;5.28;1.35;;;;;;;39.88;18.04;102656.44;5076628;28;20031;-76
2022/08/10 11:36:49;;;;;;;2.83;1.15;;;;;;;41.14;17.50;102638.91;5075839;28;20502;-77
2022/08/10 11:39:23;;;;;;;3.05;1.27;;;;;;;41.78;16.76;102641.53;5079079;28;20500;-77
2022/08/10 11:41:57;;;;;;;1.60;1.00;;;;;;;41.37;16.94;102645.34;5081846;28;20024;-77
2022/08/10 11:44:34;;;;;;;1.42;1.00;;;;;;;38.91;18.62;102632.88;5089308;28;20023;-77
2022/08/10 11:47:22;;;;;;;2.88;1.63;;;;;;;40.46;17.56;102627.28;5076798;28;20024;-78
2022/08/10 11:50:10;;;;;;;3.55;1.35;;;;;;;41.37;16.65;102631.63;5075892;28;20031;-77
2022/08/10 11:52:47;;;;;;;3.95;1.30;;;;;;;40.47;16.99;102626.25;5082594;28;20028;-77
2022/08/10 11:55:22;;;;;;;3.92;1.05;;;;;;;39.72;18.11;102627.16;5079907;28;20031;-77